Nunam Iqua, Alaska
Current Conditions -  °F | °C
As of 10:56 AM on Thursday 30 Oct 2014 (Local Time) from PAEM Reporting Station
Overcast Overcast  
Wind Chill: 16°   Ceiling: 3100
Heat Index: 25°   Visibility: 10mi
Dew Point: 18°   Wind: 8mph
Humidity: 74%   Direction: 360°N
Pressure: 29.92"   Gusts: NA
Location:  62.5092°N, 164.453°W
Report Text: PAEM 301856Z 36007KT 10SM OVC031 M04/M08 A2992 RMK AO1
Loading
Personal Weather Stations






























Interactive Weather Map
Tropical Storm Tracking
New forecast layout! Learn more

10-Day Weather Forecast

Advertisements
Track Severe Weather on mobile